sensor_id;sensor_type;location;lat;lon;timestamp;temperature;humidity
15394;DHT22;7795;47.986;11.868;2023-02-10T00:01:15;-0.10;69.10
15394;DHT22;7795;47.986;11.868;2023-02-10T00:03:42;-0.10;69.10
15394;DHT22;7795;47.986;11.868;2023-02-10T00:06:09;-0.10;69.10
15394;DHT22;7795;47.986;11.868;2023-02-10T00:08:36;-0.20;69.10
15394;DHT22;7795;47.986;11.868;2023-02-10T00:11:04;-0.20;69.20
15394;DHT22;7795;47.986;11.868;2023-02-10T00:13:32;-0.20;69.20
15394;DHT22;7795;47.986;11.868;2023-02-10T00:15:58;-0.20;69.30
15394;DHT22;7795;47.986;11.868;2023-02-10T00:18:24;-0.20;69.20
15394;DHT22;7795;47.986;11.868;2023-02-10T00:20:50;-0.30;69.20
15394;DHT22;7795;47.986;11.868;2023-02-10T00:23:16;-0.30;69.10
15394;DHT22;7795;47.986;11.868;2023-02-10T00:25:42;-0.30;69.10
15394;DHT22;7795;47.986;11.868;2023-02-10T00:28:08;-0.30;69.90
15394;DHT22;7795;47.986;11.868;2023-02-10T00:30:36;-0.30;69.20
15394;DHT22;7795;47.986;11.868;2023-02-10T00:33:02;-0.40;69.40
15394;DHT22;7795;47.986;11.868;2023-02-10T00:35:28;-0.40;69.40
15394;DHT22;7795;47.986;11.868;2023-02-10T00:37:54;-0.40;69.40
15394;DHT22;7795;47.986;11.868;2023-02-10T00:40:19;-0.40;69.40
15394;DHT22;7795;47.986;11.868;2023-02-10T00:42:45;-0.40;69.40
15394;DHT22;7795;47.986;11.868;2023-02-10T00:45:11;-0.40;69.40
15394;DHT22;7795;47.986;11.868;2023-02-10T00:47:38;-0.50;69.40
15394;DHT22;7795;47.986;11.868;2023-02-10T00:50:05;-0.50;69.40
15394;DHT22;7795;47.986;11.868;2023-02-10T00:52:31;-0.50;69.50
15394;DHT22;7795;47.986;11.868;2023-02-10T00:54:56;-0.50;69.50
15394;DHT22;7795;47.986;11.868;2023-02-10T00:57:22;-0.50;69.60
15394;DHT22;7795;47.986;11.868;2023-02-10T00:59:48;-0.60;69.70
15394;DHT22;7795;47.986;11.868;2023-02-10T01:02:14;-0.60;69.70
15394;DHT22;7795;47.986;11.868;2023-02-10T01:04:41;-0.60;69.70
15394;DHT22;7795;47.986;11.868;2023-02-10T01:07:09;-0.60;69.80
15394;DHT22;7795;47.986;11.868;2023-02-10T01:09:34;-0.60;69.70
15394;DHT22;7795;47.986;11.868;2023-02-10T01:12:00;-0.60;69.50
15394;DHT22;7795;47.986;11.868;2023-02-10T01:14:26;-0.70;69.30
15394;DHT22;7795;47.986;11.868;2023-02-10T01:16:52;-0.70;69.20
15394;DHT22;7795;47.986;11.868;2023-02-10T01:19:18;-0.80;70.00
15394;DHT22;7795;47.986;11.868;2023-02-10T01:21:45;-0.80;69.40
15394;DHT22;7795;47.986;11.868;2023-02-10T01:24:11;-0.90;69.50
15394;DHT22;7795;47.986;11.868;2023-02-10T01:26:36;-0.90;69.70
15394;DHT22;7795;47.986;11.868;2023-02-10T01:29:02;-0.90;69.70
15394;DHT22;7795;47.986;11.868;2023-02-10T01:31:28;-1.00;69.70
15394;DHT22;7795;47.986;11.868;2023-02-10T01:33:55;-0.90;69.80
15394;DHT22;7795;47.986;11.868;2023-02-10T01:36:22;-0.90;70.00
15394;DHT22;7795;47.986;11.868;2023-02-10T01:38:50;-1.00;70.10
15394;DHT22;7795;47.986;11.868;2023-02-10T01:41:18;-1.00;70.10
15394;DHT22;7795;47.986;11.868;2023-02-10T01:44:00;-0.90;70.20
15394;DHT22;7795;47.986;11.868;2023-02-10T01:46:27;-0.90;70.50
15394;DHT22;7795;47.986;11.868;2023-02-10T01:48:54;-0.90;70.20
15394;DHT22;7795;47.986;11.868;2023-02-10T01:51:25;-0.90;70.20
15394;DHT22;7795;47.986;11.868;2023-02-10T01:53:55;-0.90;70.20
15394;DHT22;7795;47.986;11.868;2023-02-10T01:56:21;-0.90;70.20
15394;DHT22;7795;47.986;11.868;2023-02-10T01:58:46;-0.90;70.20
15394;DHT22;7795;47.986;11.868;2023-02-10T02:01:12;-0.80;70.20
15394;DHT22;7795;47.986;11.868;2023-02-10T02:03:38;-0.80;70.20
15394;DHT22;7795;47.986;11.868;2023-02-10T02:06:06;-0.80;70.30
15394;DHT22;7795;47.986;11.868;2023-02-10T02:08:32;-0.80;70.40
15394;DHT22;7795;47.986;11.868;2023-02-10T02:11:05;-0.80;70.40
15394;DHT22;7795;47.986;11.868;2023-02-10T02:13:47;-0.80;70.50
15394;DHT22;7795;47.986;11.868;2023-02-10T02:16:24;-0.80;70.60
15394;DHT22;7795;47.986;11.868;2023-02-10T02:18:56;-0.80;70.40
15394;DHT22;7795;47.986;11.868;2023-02-10T02:21:45;-0.80;71.10
15394;DHT22;7795;47.986;11.868;2023-02-10T02:27:34;-0.80;70.40
15394;DHT22;7795;47.986;11.868;2023-02-10T02:30:32;-0.90;70.40
15394;DHT22;7795;47.986;11.868;2023-02-10T02:33:05;-0.90;71.20
15394;DHT22;7795;47.986;11.868;2023-02-10T02:35:34;-0.90;70.30
15394;DHT22;7795;47.986;11.868;2023-02-10T02:38:02;-0.90;70.20
15394;DHT22;7795;47.986;11.868;2023-02-10T02:40:28;-0.90;70.20
15394;DHT22;7795;47.986;11.868;2023-02-10T02:42:54;-1.00;70.10
15394;DHT22;7795;47.986;11.868;2023-02-10T02:45:21;-1.00;70.10
15394;DHT22;7795;47.986;11.868;2023-02-10T02:48:10;-1.00;70.10
15394;DHT22;7795;47.986;11.868;2023-02-10T02:50:40;-1.00;70.20
15394;DHT22;7795;47.986;11.868;2023-02-10T02:53:17;-1.00;70.10
15394;DHT22;7795;47.986;11.868;2023-02-10T02:55:52;-1.00;70.20
15394;DHT22;7795;47.986;11.868;2023-02-10T02:58:27;-1.00;70.20
15394;DHT22;7795;47.986;11.868;2023-02-10T03:00:58;-1.10;70.30
15394;DHT22;7795;47.986;11.868;2023-02-10T03:03:32;-1.10;70.30
15394;DHT22;7795;47.986;11.868;2023-02-10T03:05:59;-1.00;70.40
15394;DHT22;7795;47.986;11.868;2023-02-10T03:08:25;-1.00;70.40
15394;DHT22;7795;47.986;11.868;2023-02-10T03:10:51;-1.10;70.40
15394;DHT22;7795;47.986;11.868;2023-02-10T03:13:16;-1.10;70.30
15394;DHT22;7795;47.986;11.868;2023-02-10T03:15:42;-1.10;70.40
15394;DHT22;7795;47.986;11.868;2023-02-10T03:18:08;-1.00;70.50
15394;DHT22;7795;47.986;11.868;2023-02-10T03:20:36;-1.00;70.50
15394;DHT22;7795;47.986;11.868;2023-02-10T03:23:01;-1.00;70.60
15394;DHT22;7795;47.986;11.868;2023-02-10T03:25:27;-1.00;70.50
15394;DHT22;7795;47.986;11.868;2023-02-10T03:27:53;-1.00;70.60
15394;DHT22;7795;47.986;11.868;2023-02-10T03:30:19;-1.00;70.70
15394;DHT22;7795;47.986;11.868;2023-02-10T03:32:44;-1.00;70.70
15394;DHT22;7795;47.986;11.868;2023-02-10T03:35:11;-1.00;70.70
15394;DHT22;7795;47.986;11.868;2023-02-10T03:37:39;-1.00;70.70
15394;DHT22;7795;47.986;11.868;2023-02-10T03:40:05;-1.00;70.70
15394;DHT22;7795;47.986;11.868;2023-02-10T03:42:30;-1.10;70.70
15394;DHT22;7795;47.986;11.868;2023-02-10T03:44:56;-1.10;70.70
15394;DHT22;7795;47.986;11.868;2023-02-10T03:47:22;-1.10;70.70
15394;DHT22;7795;47.986;11.868;2023-02-10T03:49:48;-1.10;70.70
15394;DHT22;7795;47.986;11.868;2023-02-10T03:52:13;-1.10;70.70
15394;DHT22;7795;47.986;11.868;2023-02-10T03:54:41;-1.10;70.70
15394;DHT22;7795;47.986;11.868;2023-02-10T03:57:07;-1.10;70.80
15394;DHT22;7795;47.986;11.868;2023-02-10T03:59:32;-1.10;70.80
15394;DHT22;7795;47.986;11.868;2023-02-10T04:01:58;-1.10;70.80
15394;DHT22;7795;47.986;11.868;2023-02-10T04:04:24;-1.10;70.80
15394;DHT22;7795;47.986;11.868;2023-02-10T04:06:50;-1.10;70.80
15394;DHT22;7795;47.986;11.868;2023-02-10T04:09:15;-1.10;70.80
15394;DHT22;7795;47.986;11.868;2023-02-10T04:11:42;-1.10;70.80
15394;DHT22;7795;47.986;11.868;2023-02-10T04:14:08;-1.20;70.80
15394;DHT22;7795;47.986;11.868;2023-02-10T04:16:34;-1.20;70.80
15394;DHT22;7795;47.986;11.868;2023-02-10T04:19:00;-1.20;70.80
15394;DHT22;7795;47.986;11.868;2023-02-10T04:21:25;-1.20;70.80
15394;DHT22;7795;47.986;11.868;2023-02-10T04:23:51;-1.20;70.80
15394;DHT22;7795;47.986;11.868;2023-02-10T04:26:17;-1.20;70.80
15394;DHT22;7795;47.986;11.868;2023-02-10T04:28:44;-1.30;70.80
15394;DHT22;7795;47.986;11.868;2023-02-10T04:31:10;-1.30;70.80
15394;DHT22;7795;47.986;11.868;2023-02-10T04:33:36;-1.30;70.80
15394;DHT22;7795;47.986;11.868;2023-02-10T04:36:03;-1.30;70.70
15394;DHT22;7795;47.986;11.868;2023-02-10T04:38:29;-1.40;70.50
15394;DHT22;7795;47.986;11.868;2023-02-10T04:40:55;-1.40;70.50
15394;DHT22;7795;47.986;11.868;2023-02-10T04:43:21;-1.50;70.40
15394;DHT22;7795;47.986;11.868;2023-02-10T04:45:48;-1.50;70.50
15394;DHT22;7795;47.986;11.868;2023-02-10T04:48:14;-1.50;70.70
15394;DHT22;7795;47.986;11.868;2023-02-10T04:50:41;-1.50;70.80
15394;DHT22;7795;47.986;11.868;2023-02-10T04:53:07;-1.50;70.80
15394;DHT22;7795;47.986;11.868;2023-02-10T04:55:33;-1.50;70.80
15394;DHT22;7795;47.986;11.868;2023-02-10T04:57:59;-1.50;70.90
15394;DHT22;7795;47.986;11.868;2023-02-10T05:00:25;-1.50;71.00
15394;DHT22;7795;47.986;11.868;2023-02-10T05:02:52;-1.50;71.00
15394;DHT22;7795;47.986;11.868;2023-02-10T05:05:18;-1.50;71.00
15394;DHT22;7795;47.986;11.868;2023-02-10T05:07:43;-1.60;70.90
15394;DHT22;7795;47.986;11.868;2023-02-10T05:10:09;-1.50;71.00
15394;DHT22;7795;47.986;11.868;2023-02-10T05:12:35;-1.50;71.10
15394;DHT22;7795;47.986;11.868;2023-02-10T05:15:01;-1.50;71.10
15394;DHT22;7795;47.986;11.868;2023-02-10T05:17:27;-1.50;71.10
15394;DHT22;7795;47.986;11.868;2023-02-10T05:19:54;-1.50;71.10
15394;DHT22;7795;47.986;11.868;2023-02-10T05:22:20;-1.50;71.20
15394;DHT22;7795;47.986;11.868;2023-02-10T05:24:50;-1.50;71.20
15394;DHT22;7795;47.986;11.868;2023-02-10T05:27:17;-1.50;71.20
15394;DHT22;7795;47.986;11.868;2023-02-10T05:29:43;-1.50;71.20
15394;DHT22;7795;47.986;11.868;2023-02-10T05:32:08;-1.50;71.20
15394;DHT22;7795;47.986;11.868;2023-02-10T05:34:34;-1.50;72.00
15394;DHT22;7795;47.986;11.868;2023-02-10T05:37:01;-1.50;71.20
15394;DHT22;7795;47.986;11.868;2023-02-10T05:39:27;-1.60;71.70
15394;DHT22;7795;47.986;11.868;2023-02-10T05:41:54;-1.60;70.90
15394;DHT22;7795;47.986;11.868;2023-02-10T05:44:21;-1.60;70.90
15394;DHT22;7795;47.986;11.868;2023-02-10T05:46:47;-1.60;70.80
15394;DHT22;7795;47.986;11.868;2023-02-10T05:49:14;-1.70;70.80
15394;DHT22;7795;47.986;11.868;2023-02-10T05:51:39;-1.70;71.60
15394;DHT22;7795;47.986;11.868;2023-02-10T05:54:07;-1.70;70.90
15394;DHT22;7795;47.986;11.868;2023-02-10T05:56:33;-1.70;70.90
15394;DHT22;7795;47.986;11.868;2023-02-10T05:58:58;-1.80;70.90
15394;DHT22;7795;47.986;11.868;2023-02-10T06:01:24;-1.80;71.70
15394;DHT22;7795;47.986;11.868;2023-02-10T06:03:50;-1.80;71.00
15394;DHT22;7795;47.986;11.868;2023-02-10T06:06:16;-1.80;71.00
15394;DHT22;7795;47.986;11.868;2023-02-10T06:08:42;-1.80;71.20
15394;DHT22;7795;47.986;11.868;2023-02-10T06:11:09;-1.80;71.20
15394;DHT22;7795;47.986;11.868;2023-02-10T06:13:35;-1.90;71.20
15394;DHT22;7795;47.986;11.868;2023-02-10T06:16:01;-1.90;71.30
15394;DHT22;7795;47.986;11.868;2023-02-10T06:18:27;-1.90;71.40
15394;DHT22;7795;47.986;11.868;2023-02-10T06:20:53;-1.90;71.40
15394;DHT22;7795;47.986;11.868;2023-02-10T06:23:19;-1.80;71.50
15394;DHT22;7795;47.986;11.868;2023-02-10T06:25:46;-1.80;71.60
15394;DHT22;7795;47.986;11.868;2023-02-10T06:28:14;-1.80;71.60
15394;DHT22;7795;47.986;11.868;2023-02-10T06:30:40;-1.80;71.70
15394;DHT22;7795;47.986;11.868;2023-02-10T06:33:06;-1.80;71.70
15394;DHT22;7795;47.986;11.868;2023-02-10T06:35:32;-1.80;71.80
15394;DHT22;7795;47.986;11.868;2023-02-10T06:37:57;-1.80;71.90
15394;DHT22;7795;47.986;11.868;2023-02-10T06:40:23;-1.80;72.60
15394;DHT22;7795;47.986;11.868;2023-02-10T06:42:49;-1.80;72.00
15394;DHT22;7795;47.986;11.868;2023-02-10T06:45:16;-1.80;71.90
15394;DHT22;7795;47.986;11.868;2023-02-10T06:47:42;-1.80;72.00
15394;DHT22;7795;47.986;11.868;2023-02-10T06:50:08;-1.80;71.90
15394;DHT22;7795;47.986;11.868;2023-02-10T06:52:34;-1.80;72.00
15394;DHT22;7795;47.986;11.868;2023-02-10T06:55:03;-1.70;72.00
15394;DHT22;7795;47.986;11.868;2023-02-10T06:57:30;-1.70;72.00
15394;DHT22;7795;47.986;11.868;2023-02-10T06:59:55;-1.70;71.90
15394;DHT22;7795;47.986;11.868;2023-02-10T07:02:22;-1.70;71.90
15394;DHT22;7795;47.986;11.868;2023-02-10T07:04:48;-1.70;72.00
15394;DHT22;7795;47.986;11.868;2023-02-10T07:07:14;-1.70;71.90
15394;DHT22;7795;47.986;11.868;2023-02-10T07:09:39;-1.70;72.00
15394;DHT22;7795;47.986;11.868;2023-02-10T07:12:05;-1.70;72.00
15394;DHT22;7795;47.986;11.868;2023-02-10T07:14:31;-1.70;72.00
15394;DHT22;7795;47.986;11.868;2023-02-10T07:16:57;-1.70;72.00
15394;DHT22;7795;47.986;11.868;2023-02-10T07:19:24;-1.70;72.10
15394;DHT22;7795;47.986;11.868;2023-02-10T07:21:50;-1.60;72.30
15394;DHT22;7795;47.986;11.868;2023-02-10T07:24:16;-1.60;72.30
15394;DHT22;7795;47.986;11.868;2023-02-10T07:26:42;-1.60;72.40
15394;DHT22;7795;47.986;11.868;2023-02-10T07:29:07;-1.60;72.40
15394;DHT22;7795;47.986;11.868;2023-02-10T07:31:33;-1.50;72.40
15394;DHT22;7795;47.986;11.868;2023-02-10T07:34:00;-1.50;72.50
15394;DHT22;7795;47.986;11.868;2023-02-10T07:36:28;-1.50;73.20
15394;DHT22;7795;47.986;11.868;2023-02-10T07:38:53;-1.40;72.50
15394;DHT22;7795;47.986;11.868;2023-02-10T07:41:19;-1.40;73.30
15394;DHT22;7795;47.986;11.868;2023-02-10T07:43:45;-1.30;72.60
15394;DHT22;7795;47.986;11.868;2023-02-10T07:46:11;-1.30;72.70
15394;DHT22;7795;47.986;11.868;2023-02-10T07:48:37;-1.30;72.70
15394;DHT22;7795;47.986;11.868;2023-02-10T07:51:03;-1.20;72.80
15394;DHT22;7795;47.986;11.868;2023-02-10T07:53:30;-1.20;72.80
15394;DHT22;7795;47.986;11.868;2023-02-10T07:55:57;-1.10;73.00
15394;DHT22;7795;47.986;11.868;2023-02-10T07:58:23;-1.10;73.00
15394;DHT22;7795;47.986;11.868;2023-02-10T08:00:49;-1.00;73.10
15394;DHT22;7795;47.986;11.868;2023-02-10T08:03:15;-1.00;73.10
15394;DHT22;7795;47.986;11.868;2023-02-10T08:05:41;-0.90;73.20
15394;DHT22;7795;47.986;11.868;2023-02-10T08:08:09;-0.90;73.20
15394;DHT22;7795;47.986;11.868;2023-02-10T08:10:37;-0.80;73.30
15394;DHT22;7795;47.986;11.868;2023-02-10T08:13:03;-0.80;73.40
15394;DHT22;7795;47.986;11.868;2023-02-10T08:15:29;-0.70;73.40
15394;DHT22;7795;47.986;11.868;2023-02-10T08:17:55;-0.60;73.50
15394;DHT22;7795;47.986;11.868;2023-02-10T08:20:20;-0.50;73.70
15394;DHT22;7795;47.986;11.868;2023-02-10T08:22:46;-0.40;73.80
15394;DHT22;7795;47.986;11.868;2023-02-10T08:25:12;-0.30;73.90
15394;DHT22;7795;47.986;11.868;2023-02-10T08:27:39;-0.30;74.00
15394;DHT22;7795;47.986;11.868;2023-02-10T08:30:05;-0.10;74.10
15394;DHT22;7795;47.986;11.868;2023-02-10T08:32:32;0.00;74.10
15394;DHT22;7795;47.986;11.868;2023-02-10T08:34:57;0.10;74.20
15394;DHT22;7795;47.986;11.868;2023-02-10T08:37:23;0.20;74.10
15394;DHT22;7795;47.986;11.868;2023-02-10T08:39:49;0.30;74.00
15394;DHT22;7795;47.986;11.868;2023-02-10T08:42:15;0.40;74.00
15394;DHT22;7795;47.986;11.868;2023-02-10T08:44:42;0.50;73.90
15394;DHT22;7795;47.986;11.868;2023-02-10T08:47:08;0.70;73.90
15394;DHT22;7795;47.986;11.868;2023-02-10T08:49:36;0.80;73.80
15394;DHT22;7795;47.986;11.868;2023-02-10T08:52:04;0.90;73.70
15394;DHT22;7795;47.986;11.868;2023-02-10T08:54:29;1.10;73.60
15394;DHT22;7795;47.986;11.868;2023-02-10T08:56:55;1.20;73.50
15394;DHT22;7795;47.986;11.868;2023-02-10T08:59:21;1.30;73.50
15394;DHT22;7795;47.986;11.868;2023-02-10T09:01:48;1.40;73.50
15394;DHT22;7795;47.986;11.868;2023-02-10T09:04:14;1.60;73.50
15394;DHT22;7795;47.986;11.868;2023-02-10T09:06:40;1.70;73.30
15394;DHT22;7795;47.986;11.868;2023-02-10T09:09:09;1.80;73.30
15394;DHT22;7795;47.986;11.868;2023-02-10T09:11:35;2.00;73.30
15394;DHT22;7795;47.986;11.868;2023-02-10T09:14:01;2.10;73.20
15394;DHT22;7795;47.986;11.868;2023-02-10T09:16:26;2.20;73.10
15394;DHT22;7795;47.986;11.868;2023-02-10T09:18:54;2.40;73.10
15394;DHT22;7795;47.986;11.868;2023-02-10T09:21:19;2.50;72.80
15394;DHT22;7795;47.986;11.868;2023-02-10T09:23:45;2.60;72.70
15394;DHT22;7795;47.986;11.868;2023-02-10T09:26:11;2.70;72.50
15394;DHT22;7795;47.986;11.868;2023-02-10T09:28:37;2.90;72.40
15394;DHT22;7795;47.986;11.868;2023-02-10T09:31:05;3.00;72.30
15394;DHT22;7795;47.986;11.868;2023-02-10T09:33:31;3.20;71.90
15394;DHT22;7795;47.986;11.868;2023-02-10T09:35:58;3.30;71.70
15394;DHT22;7795;47.986;11.868;2023-02-10T09:38:24;3.40;72.10
15394;DHT22;7795;47.986;11.868;2023-02-10T09:41:04;3.50;71.10
15394;DHT22;7795;47.986;11.868;2023-02-10T09:43:55;3.60;70.90
15394;DHT22;7795;47.986;11.868;2023-02-10T09:46:29;3.80;70.40
15394;DHT22;7795;47.986;11.868;2023-02-10T09:49:04;3.90;70.20
15394;DHT22;7795;47.986;11.868;2023-02-10T09:51:40;4.00;69.80
15394;DHT22;7795;47.986;11.868;2023-02-10T09:54:09;4.20;69.70
15394;DHT22;7795;47.986;11.868;2023-02-10T09:56:37;4.30;69.70
15394;DHT22;7795;47.986;11.868;2023-02-10T09:59:05;4.40;69.40
15394;DHT22;7795;47.986;11.868;2023-02-10T10:01:37;4.50;69.10
15394;DHT22;7795;47.986;11.868;2023-02-10T10:04:04;4.60;68.90
15394;DHT22;7795;47.986;11.868;2023-02-10T10:06:36;4.70;68.90
15394;DHT22;7795;47.986;11.868;2023-02-10T10:09:12;4.70;68.60
15394;DHT22;7795;47.986;11.868;2023-02-10T10:11:41;4.80;68.40
15394;DHT22;7795;47.986;11.868;2023-02-10T10:14:16;5.00;68.40
15394;DHT22;7795;47.986;11.868;2023-02-10T10:19:52;5.10;67.90
15394;DHT22;7795;47.986;11.868;2023-02-10T10:22:31;5.20;67.70
15394;DHT22;7795;47.986;11.868;2023-02-10T10:25:15;5.30;67.40
15394;DHT22;7795;47.986;11.868;2023-02-10T10:27:52;5.40;67.20
15394;DHT22;7795;47.986;11.868;2023-02-10T10:30:28;5.50;67.20
15394;DHT22;7795;47.986;11.868;2023-02-10T10:33:00;5.60;67.10
15394;DHT22;7795;47.986;11.868;2023-02-10T10:35:33;5.70;67.90
15394;DHT22;7795;47.986;11.868;2023-02-10T10:38:08;5.70;67.00
15394;DHT22;7795;47.986;11.868;2023-02-10T10:40:36;5.80;66.60
15394;DHT22;7795;47.986;11.868;2023-02-10T10:43:02;5.90;66.70
15394;DHT22;7795;47.986;11.868;2023-02-10T10:45:32;6.00;66.60
15394;DHT22;7795;47.986;11.868;2023-02-10T10:48:04;6.00;66.10
15394;DHT22;7795;47.986;11.868;2023-02-10T10:50:32;6.10;66.20
15394;DHT22;7795;47.986;11.868;2023-02-10T10:53:03;6.20;66.30
15394;DHT22;7795;47.986;11.868;2023-02-10T10:55:35;6.20;65.90
15394;DHT22;7795;47.986;11.868;2023-02-10T10:58:09;6.30;65.50
15394;DHT22;7795;47.986;11.868;2023-02-10T11:00:37;6.40;65.20
15394;DHT22;7795;47.986;11.868;2023-02-10T11:03:04;6.40;65.20
15394;DHT22;7795;47.986;11.868;2023-02-10T11:05:32;6.50;65.00
15394;DHT22;7795;47.986;11.868;2023-02-10T11:07:59;6.50;64.90
15394;DHT22;7795;47.986;11.868;2023-02-10T11:10:30;6.60;65.20
15394;DHT22;7795;47.986;11.868;2023-02-10T11:12:58;6.60;64.90
15394;DHT22;7795;47.986;11.868;2023-02-10T11:15:35;6.70;65.10
15394;DHT22;7795;47.986;11.868;2023-02-10T11:18:05;6.70;64.60
15394;DHT22;7795;47.986;11.868;2023-02-10T11:20:34;6.80;64.90
15394;DHT22;7795;47.986;11.868;2023-02-10T11:23:01;6.80;64.70
15394;DHT22;7795;47.986;11.868;2023-02-10T11:25:31;6.90;64.60
15394;DHT22;7795;47.986;11.868;2023-02-10T11:27:58;7.00;64.40
15394;DHT22;7795;47.986;11.868;2023-02-10T11:30:26;7.00;64.50
15394;DHT22;7795;47.986;11.868;2023-02-10T11:32:52;7.10;64.10
15394;DHT22;7795;47.986;11.868;2023-02-10T11:35:18;7.10;64.10
15394;DHT22;7795;47.986;11.868;2023-02-10T11:37:51;7.10;64.00
15394;DHT22;7795;47.986;11.868;2023-02-10T11:40:20;7.20;63.50
15394;DHT22;7795;47.986;11.868;2023-02-10T11:42:49;7.30;63.80
15394;DHT22;7795;47.986;11.868;2023-02-10T11:45:18;7.30;63.60
15394;DHT22;7795;47.986;11.868;2023-02-10T11:47:44;7.40;63.50
15394;DHT22;7795;47.986;11.868;2023-02-10T11:50:20;7.40;63.30
15394;DHT22;7795;47.986;11.868;2023-02-10T11:52:46;7.40;62.70
15394;DHT22;7795;47.986;11.868;2023-02-10T11:55:12;7.50;63.20
15394;DHT22;7795;47.986;11.868;2023-02-10T11:57:47;7.50;63.00
15394;DHT22;7795;47.986;11.868;2023-02-10T12:00:39;7.60;62.70
15394;DHT22;7795;47.986;11.868;2023-02-10T12:03:30;7.60;62.80
15394;DHT22;7795;47.986;11.868;2023-02-10T12:06:05;7.70;61.90
15394;DHT22;7795;47.986;11.868;2023-02-10T12:08:40;7.70;62.30
15394;DHT22;7795;47.986;11.868;2023-02-10T12:11:12;7.70;62.20
15394;DHT22;7795;47.986;11.868;2023-02-10T12:13:48;7.80;62.30
15394;DHT22;7795;47.986;11.868;2023-02-10T12:16:22;7.80;61.90
15394;DHT22;7795;47.986;11.868;2023-02-10T12:18:57;7.90;61.90
15394;DHT22;7795;47.986;11.868;2023-02-10T12:21:43;7.90;61.60
15394;DHT22;7795;47.986;11.868;2023-02-10T12:24:36;8.00;62.40
15394;DHT22;7795;47.986;11.868;2023-02-10T12:27:10;8.00;61.10
15394;DHT22;7795;47.986;11.868;2023-02-10T12:29:45;8.00;61.50
15394;DHT22;7795;47.986;11.868;2023-02-10T12:32:24;8.10;61.00
15394;DHT22;7795;47.986;11.868;2023-02-10T12:35:03;8.10;60.90
15394;DHT22;7795;47.986;11.868;2023-02-10T12:37:37;8.10;60.80
15394;DHT22;7795;47.986;11.868;2023-02-10T12:40:21;8.20;61.10
15394;DHT22;7795;47.986;11.868;2023-02-10T12:42:58;8.20;60.50
15394;DHT22;7795;47.986;11.868;2023-02-10T12:45:32;8.20;60.50
15394;DHT22;7795;47.986;11.868;2023-02-10T12:48:07;8.30;60.40
15394;DHT22;7795;47.986;11.868;2023-02-10T12:50:55;8.30;60.20
15394;DHT22;7795;47.986;11.868;2023-02-10T12:53:27;8.40;60.00
15394;DHT22;7795;47.986;11.868;2023-02-10T12:55:56;8.40;60.20
15394;DHT22;7795;47.986;11.868;2023-02-10T12:58:27;8.40;60.10
15394;DHT22;7795;47.986;11.868;2023-02-10T13:01:00;8.50;60.00
15394;DHT22;7795;47.986;11.868;2023-02-10T13:03:32;8.50;59.60
15394;DHT22;7795;47.986;11.868;2023-02-10T13:06:05;8.60;59.70
15394;DHT22;7795;47.986;11.868;2023-02-10T13:08:36;8.60;59.40
15394;DHT22;7795;47.986;11.868;2023-02-10T13:11:09;8.60;59.50
15394;DHT22;7795;47.986;11.868;2023-02-10T13:13:38;8.60;59.30
15394;DHT22;7795;47.986;11.868;2023-02-10T13:16:10;8.70;59.40
15394;DHT22;7795;47.986;11.868;2023-02-10T13:18:46;8.70;59.00
15394;DHT22;7795;47.986;11.868;2023-02-10T13:21:19;8.70;58.90
15394;DHT22;7795;47.986;11.868;2023-02-10T13:23:49;8.80;59.10
15394;DHT22;7795;47.986;11.868;2023-02-10T13:26:38;8.80;59.10
15394;DHT22;7795;47.986;11.868;2023-02-10T13:29:15;8.80;58.50
15394;DHT22;7795;47.986;11.868;2023-02-10T13:31:59;8.80;58.60
15394;DHT22;7795;47.986;11.868;2023-02-10T13:34:32;8.90;58.50
15394;DHT22;7795;47.986;11.868;2023-02-10T13:37:04;8.90;58.90
15394;DHT22;7795;47.986;11.868;2023-02-10T13:39:31;8.90;58.50
15394;DHT22;7795;47.986;11.868;2023-02-10T13:42:07;8.90;58.70
15394;DHT22;7795;47.986;11.868;2023-02-10T13:44:34;9.00;58.00
15394;DHT22;7795;47.986;11.868;2023-02-10T13:47:30;9.00;58.30
15394;DHT22;7795;47.986;11.868;2023-02-10T13:50:02;9.00;57.60
15394;DHT22;7795;47.986;11.868;2023-02-10T13:52:31;9.00;58.00
15394;DHT22;7795;47.986;11.868;2023-02-10T13:55:22;9.00;57.80
15394;DHT22;7795;47.986;11.868;2023-02-10T13:57:53;9.00;57.70
15394;DHT22;7795;47.986;11.868;2023-02-10T14:00:21;9.00;57.50
15394;DHT22;7795;47.986;11.868;2023-02-10T14:02:59;9.10;57.20
15394;DHT22;7795;47.986;11.868;2023-02-10T14:05:29;9.00;56.80
15394;DHT22;7795;47.986;11.868;2023-02-10T14:07:55;9.00;57.30
15394;DHT22;7795;47.986;11.868;2023-02-10T14:10:33;9.00;57.40
15394;DHT22;7795;47.986;11.868;2023-02-10T14:13:02;9.00;56.70
15394;DHT22;7795;47.986;11.868;2023-02-10T14:15:30;9.00;57.10
15394;DHT22;7795;47.986;11.868;2023-02-10T14:17:59;9.00;57.20
15394;DHT22;7795;47.986;11.868;2023-02-10T14:20:29;9.00;57.20
15394;DHT22;7795;47.986;11.868;2023-02-10T14:22:56;9.00;57.00
15394;DHT22;7795;47.986;11.868;2023-02-10T14:25:37;9.00;56.80
15394;DHT22;7795;47.986;11.868;2023-02-10T14:28:04;8.90;56.70
15394;DHT22;7795;47.986;11.868;2023-02-10T14:30:39;8.90;57.10
15394;DHT22;7795;47.986;11.868;2023-02-10T14:33:18;8.90;56.60
15394;DHT22;7795;47.986;11.868;2023-02-10T14:35:50;8.90;56.70
15394;DHT22;7795;47.986;11.868;2023-02-10T14:38:21;9.00;56.90
15394;DHT22;7795;47.986;11.868;2023-02-10T14:40:48;8.90;56.70
15394;DHT22;7795;47.986;11.868;2023-02-10T14:43:20;8.90;56.90
15394;DHT22;7795;47.986;11.868;2023-02-10T14:45:47;8.90;56.60
15394;DHT22;7795;47.986;11.868;2023-02-10T14:48:14;8.90;57.50
15394;DHT22;7795;47.986;11.868;2023-02-10T14:50:41;8.90;56.80
15394;DHT22;7795;47.986;11.868;2023-02-10T14:53:17;8.90;56.80
15394;DHT22;7795;47.986;11.868;2023-02-10T14:55:43;8.90;56.30
15394;DHT22;7795;47.986;11.868;2023-02-10T14:58:12;8.90;56.90
15394;DHT22;7795;47.986;11.868;2023-02-10T15:00:40;8.80;56.70
15394;DHT22;7795;47.986;11.868;2023-02-10T15:03:06;8.80;56.60
15394;DHT22;7795;47.986;11.868;2023-02-10T15:05:37;8.80;56.70
15394;DHT22;7795;47.986;11.868;2023-02-10T15:08:06;8.80;56.60
15394;DHT22;7795;47.986;11.868;2023-02-10T15:10:35;8.80;56.60
15394;DHT22;7795;47.986;11.868;2023-02-10T15:13:02;8.80;56.50
15394;DHT22;7795;47.986;11.868;2023-02-10T15:15:31;8.80;56.60
15394;DHT22;7795;47.986;11.868;2023-02-10T15:18:02;8.70;56.60
15394;DHT22;7795;47.986;11.868;2023-02-10T15:20:29;8.70;56.40
15394;DHT22;7795;47.986;11.868;2023-02-10T15:23:12;8.70;56.70
15394;DHT22;7795;47.986;11.868;2023-02-10T15:25:39;8.70;56.10
15394;DHT22;7795;47.986;11.868;2023-02-10T15:28:20;8.70;56.60
15394;DHT22;7795;47.986;11.868;2023-02-10T15:30:57;8.70;56.20
15394;DHT22;7795;47.986;11.868;2023-02-10T15:33:25;8.60;56.60
15394;DHT22;7795;47.986;11.868;2023-02-10T15:35:53;8.60;56.80
15394;DHT22;7795;47.986;11.868;2023-02-10T15:38:19;8.60;56.70
15394;DHT22;7795;47.986;11.868;2023-02-10T15:40:53;8.60;56.80
15394;DHT22;7795;47.986;11.868;2023-02-10T15:43:25;8.60;56.50
15394;DHT22;7795;47.986;11.868;2023-02-10T15:45:51;8.60;56.60
15394;DHT22;7795;47.986;11.868;2023-02-10T15:48:20;8.50;56.60
15394;DHT22;7795;47.986;11.868;2023-02-10T15:50:46;8.50;56.50
15394;DHT22;7795;47.986;11.868;2023-02-10T15:53:18;8.40;56.60
15394;DHT22;7795;47.986;11.868;2023-02-10T15:55:45;8.40;56.70